ADDS METAR Data INFO
IDs: Format: Raw Decoded Include TAF

Data at: 1850 UTC 16 Dec 2017

PAGH 161756Z AUTO 09007KT 5SM -SN BR CLR M03/M04 A2919 RMK AO2 SLP893 P0000 60000 T10281039 11022 21028 56006 FZRANO
PAGH 161656Z AUTO 09011KT 10SM -SN CLR M03/M04 A2920 RMK AO2 SNE37B53 SLP893 P0000 T10281044 FZRANO
PAGH 161556Z AUTO 09009KT 9SM -SN SCT026 M03/M04 A2920 RMK AO2 SLP896 P0000 T10281039 FZRANO
PAGH 161540Z AUTO 09009KT 9SM -SN BKN028 M03/M04 A2921 RMK AO2 P0000 FZRANO
PAGH 161456Z AUTO 09010KT 9SM -SN BKN030 OVC036 M03/M04 A2921 RMK AO2 SLP899 P0000 60000 T10281039 56008 FZRANO
PAGH 161434Z AUTO 09009KT 6SM -SN BR OVC030 M03/M04 A2921 RMK AO2 P0000 FZRANO
PAGH 161356Z AUTO 09010KT 5SM -SN BR OVC028 M03/M04 A2922 RMK AO2 SLP900 P0000 T10281039 FZRANO
PAGH 161256Z AUTO 10012KT 7SM -SN OVC029 M03/M04 A2922 RMK AO2 SLP902 P0000 T10281044 FZRANO
PAGH 161212Z AUTO 10011KT 9SM -SN OVC031 M03/M04 A2923 RMK AO2 P0000 FZRANO
PAGH 161156Z AUTO 09009KT 9SM -SN BKN029 OVC035 M03/M04 A2924 RMK AO2 SLP907 P0000 60000 T10281044 11028 21033 58011 FZRANO
PAGH 161056Z AUTO 10013KT 9SM -SN BKN050 M03/M04 A2925 RMK AO2 SNB0959 SLP911 P0000 T10281044 FZRANO
PAGH 160956Z AUTO 09014KT 10SM CLR M03/M05 A2926 RMK AO2 SLP916 T10331050 FZRANO
PAGH 160856Z AUTO 11017KT 10SM CLR M03/M05 A2927 RMK AO2 SNB04E33 SLP918 P0000 60000 T10331050 410221078 58018 FZRANO
PAGH 160756Z AUTO 08015KT 10SM FEW110 M03/M05 A2929 RMK AO2 SLP925 T10331050 FZRANO
PAGH 160556Z AUTO 09020KT 10SM CLR M03/M04 A2932 RMK AO2 PK WND 10026/0501 SNE04 SLP936 P0000 60000 T10281044 11022 21039 58015 FZRANO
PAGH 160456Z AUTO 10018G26KT 9SM -SN BKN048 M03/M04 A2934 RMK AO2 PK WND 11026/0455 SLP942 P0000 T10281039 FZRANO
PAGH 160356Z AUTO 08011KT 9SM -SN OVC085 M03/M04 A2937 RMK AO2 SLP951 P0000 T10331044 FZRANO
PAGH 160256Z AUTO 10017KT 9SM -SN BKN085 BKN110 M03/M04 A2937 RMK AO2 SNB41 SLP952 P0000 60000 T10331044 56025 FZRANO
PAGH 160156Z AUTO 10018G23KT 10SM OVC070 M03/M04 A2938 RMK AO2 SLP955 T10281044 FZRANO
PAGH 160056Z AUTO 10011KT 10SM BKN070 M04/M05 A2941 RMK AO2 SLP965 T10391050 FZRANO
PAGH 152356Z AUTO 09015KT 10SM CLR M03/M05 A2944 RMK AO2 SLP977 T10331050 11033 21078 58024 FZRANO
PAGH 152256Z AUTO 10012KT 10SM CLR M04/M05 A2947 RMK AO2 SLP987 T10391050 FZRANO
PAGH 152156Z AUTO 10009KT 10SM CLR M05/M06 A2949 RMK AO2 SLP993 T10501056 FZRANO
PAGH 152056Z AUTO 08005KT 10SM CLR M07/M07 A2951 RMK AO2 SLP002 T10671072 56022 FZRANO
PAGH 152010Z AUTO 07008KT 10SM FEW004 M07/M07 A2952 RMK AO2 FZRANO
PAGH 151956Z AUTO 10009KT 10SM CLR M07/M08 A2953 RMK AO2 SLP007 T10721078 FZRANO
PAGH 151856Z AUTO 07005KT 10SM FEW005 M07/M08 A2955 RMK AO2 SLP013 T10671078 FZRANO
PAGH 151827Z AUTO 05006KT 10SM BKN005 M06/M07 A2956 RMK AO2 FZRANO
PAGH 151756Z AUTO 09003KT 10SM OVC009 M06/M06 A2958 RMK AO2 SNE32 SLP023 P0000 60000 T10561061 11050 21056 57013 FZRANO
PAGH 151735Z AUTO 12003KT 9SM OVC009 M05/M06 A2959 RMK AO2 SNE32 P0000 FZRANO
PAGH 151656Z AUTO 00000KT 7SM -SN OVC011 M06/M06 A2959 RMK AO2 SNB1558 SLP028 P0000 T10561061 FZRANO
PAGH 151556Z AUTO 06004KT 10SM OVC013 M06/M07 A2960 RMK AO2 SNE32 SLP032 P0000 T10561067 FZRANO
PAGH 151538Z AUTO 06005KT 10SM FEW006 OVC013 M06/M07 A2961 RMK AO2 SNE32 P0000 FZRANO
PAGH 151456Z AUTO 00000KT 6SM -SN BR FEW006 OVC015 M06/M06 A2962 RMK AO2 SNB36 SLP036 P0000 60000 T10561061 56002 FZRANO
PAGH 151452Z AUTO 00000KT 7SM -SN FEW006 OVC015 M06/M06 A2962 RMK AO2 SNB36 P0000 FZRANO
PAGH 151356Z AUTO 00000KT 9SM OVC017 M06/M06 A2962 RMK AO2 SNB1258E53 SLP035 P0000 T10561061 FZRANO
PAGH 151256Z AUTO 07004KT 8SM OVC017 M06/M06 A2962 RMK AO2 SNB39E51 SLP038 P0000 T10561061 FZRANO
PAGH 151156Z AUTO 00000KT 10SM OVC017 M05/M06 A2964 RMK AO2 SLP044 60000 70001 T10501061 11044 21056 50002 FZRANO
PAGH 150956Z AUTO 00000KT 10SM OVC023 M06/M07 A2964 RMK AO2 SLP045 T10561067 FZRANO